createdAt,value
2017-10-26T00:00:53.154Z,81.00
2017-10-26T00:03:21.634Z,82.20
2017-10-26T00:05:49.142Z,82.20
2017-10-26T00:08:16.626Z,82.90
2017-10-26T00:10:44.120Z,81.10
2017-10-26T00:13:11.594Z,82.80
2017-10-26T00:15:39.084Z,82.50
2017-10-26T00:18:07.332Z,82.10
2017-10-26T00:20:34.800Z,82.00
2017-10-26T00:23:02.274Z,82.90
2017-10-26T00:25:30.515Z,84.30
2017-10-26T00:27:57.994Z,84.70
2017-10-26T00:30:25.470Z,85.20
2017-10-26T00:32:53.732Z,85.90
2017-10-26T00:35:21.228Z,85.10
2017-10-26T00:37:48.703Z,85.00
2017-10-26T00:40:16.180Z,85.80
2017-10-26T00:42:43.655Z,86.40
2017-10-26T00:45:11.143Z,86.30
2017-10-26T00:47:39.386Z,87.10
2017-10-26T00:50:06.866Z,86.90
2017-10-26T00:52:34.338Z,86.30
2017-10-26T00:55:02.583Z,85.90
2017-10-26T00:57:30.054Z,85.80
2017-10-26T00:59:57.536Z,86.90
2017-10-26T01:02:25.811Z,87.40
2017-10-26T01:04:54.051Z,87.30
2017-10-26T01:07:21.531Z,87.20
2017-10-26T01:09:49.006Z,85.30
2017-10-26T01:12:17.252Z,86.40
2017-10-26T01:14:44.730Z,86.30
2017-10-26T01:17:12.206Z,86.90
2017-10-26T01:19:40.455Z,86.80
2017-10-26T01:22:07.926Z,86.80
2017-10-26T01:24:36.170Z,86.90
2017-10-26T01:27:03.659Z,86.80
2017-10-26T01:29:31.143Z,86.90
2017-10-26T01:31:59.400Z,86.50
2017-10-26T01:34:27.643Z,87.20
2017-10-26T01:36:55.113Z,87.00
2017-10-26T01:39:22.593Z,87.10
2017-10-26T01:41:50.842Z,89.70
2017-10-26T01:44:18.331Z,89.10
2017-10-26T01:46:46.587Z,88.50
2017-10-26T01:49:14.074Z,88.50
2017-10-26T01:51:42.318Z,88.80
2017-10-26T01:54:09.800Z,88.80
2017-10-26T01:56:38.046Z,88.60
2017-10-26T01:59:05.528Z,88.50
2017-10-26T02:01:33.019Z,88.00
2017-10-26T02:04:00.521Z,88.50
2017-10-26T02:06:28.010Z,88.60
2017-10-26T02:08:56.272Z,88.80
2017-10-26T02:11:24.530Z,89.00
2017-10-26T02:13:52.015Z,88.30
2017-10-26T02:16:21.015Z,88.70
2017-10-26T02:18:48.498Z,88.60
2017-10-26T02:21:16.761Z,88.30
2017-10-26T02:23:45.011Z,87.80
2017-10-26T02:26:12.498Z,87.80
2017-10-26T02:28:52.586Z,87.60
2017-10-26T02:31:32.045Z,87.50
2017-10-26T02:33:59.519Z,88.60
2017-10-26T02:36:27.015Z,88.80
2017-10-26T02:38:55.268Z,88.30
2017-10-26T02:41:22.741Z,88.10
2017-10-26T02:43:50.986Z,88.70
2017-10-26T02:46:18.461Z,88.70
2017-10-26T02:48:45.943Z,88.10
2017-10-26T02:51:14.177Z,87.40
2017-10-26T02:53:41.663Z,87.30
2017-10-26T02:56:09.146Z,88.10
2017-10-26T02:58:37.386Z,87.20
2017-10-26T03:01:04.864Z,87.20
2017-10-26T03:03:33.119Z,87.50
2017-10-26T03:06:00.608Z,87.10
2017-10-26T03:08:28.855Z,84.00
2017-10-26T03:10:56.325Z,84.00
2017-10-26T03:13:24.564Z,85.10
2017-10-26T03:15:52.034Z,85.10
2017-10-26T03:18:19.514Z,85.10
2017-10-26T03:20:47.001Z,85.90
2017-10-26T03:23:14.501Z,85.80
2017-10-26T03:25:41.977Z,85.90
2017-10-26T03:28:09.454Z,85.40
2017-10-26T03:30:36.937Z,86.70
2017-10-26T03:33:05.182Z,86.80
2017-10-26T03:35:32.671Z,86.80
2017-10-26T03:38:00.931Z,86.40
2017-10-26T03:40:28.415Z,86.30
2017-10-26T03:42:55.894Z,86.30
2017-10-26T03:45:23.370Z,85.50
2017-10-26T03:47:50.840Z,85.80
2017-10-26T03:50:18.333Z,85.30
2017-10-26T03:52:46.569Z,85.80
2017-10-26T03:55:14.088Z,85.70
2017-10-26T03:57:41.570Z,86.30
2017-10-26T04:00:09.109Z,85.10
2017-10-26T04:02:36.612Z,84.20
2017-10-26T04:05:04.098Z,83.10
2017-10-26T04:07:32.347Z,84.20
2017-10-26T04:09:59.838Z,84.00
2017-10-26T04:12:28.095Z,83.50
2017-10-26T04:14:55.588Z,83.50
2017-10-26T04:17:23.835Z,85.60
2017-10-26T04:19:51.320Z,85.60
2017-10-26T04:22:19.567Z,86.60
2017-10-26T04:24:47.042Z,86.50
2017-10-26T04:27:14.523Z,85.20
2017-10-26T04:29:42.807Z,86.40
2017-10-26T04:32:10.296Z,86.30
2017-10-26T04:34:37.786Z,86.30
2017-10-26T04:37:05.257Z,86.60
2017-10-26T04:39:33.512Z,87.10
2017-10-26T04:42:00.995Z,87.00
2017-10-26T04:44:29.233Z,86.40
2017-10-26T04:46:56.714Z,86.40
2017-10-26T04:49:24.208Z,86.10
2017-10-26T04:51:51.680Z,87.40
2017-10-26T04:54:19.157Z,88.10
2017-10-26T04:56:46.635Z,87.80
2017-10-26T04:59:14.113Z,87.50
2017-10-26T05:01:42.361Z,88.30
2017-10-26T05:04:09.843Z,88.40
2017-10-26T05:06:37.358Z,88.50
2017-10-26T05:09:04.833Z,88.40
2017-10-26T05:11:32.311Z,88.10
2017-10-26T05:13:59.796Z,88.10
2017-10-26T05:16:28.037Z,87.60
2017-10-26T05:18:55.516Z,87.50
2017-10-26T05:21:22.995Z,88.10
2017-10-26T05:23:51.250Z,89.00
2017-10-26T05:26:18.726Z,89.00
2017-10-26T05:28:46.980Z,89.70
2017-10-26T05:31:14.458Z,89.70
2017-10-26T05:33:42.697Z,88.70
2017-10-26T05:36:10.187Z,88.60
2017-10-26T05:38:38.438Z,89.30
2017-10-26T05:41:05.904Z,89.20
2017-10-26T05:43:33.391Z,90.10
2017-10-26T05:46:01.640Z,89.10
2017-10-26T05:48:29.117Z,89.10
2017-10-26T05:50:57.377Z,89.60
2017-10-26T05:53:24.857Z,88.80
2017-10-26T05:55:52.326Z,89.40
2017-10-26T05:58:20.565Z,90.10
2017-10-26T06:00:48.038Z,90.10
2017-10-26T06:03:16.290Z,89.30
2017-10-26T06:05:43.758Z,89.20
2017-10-26T06:08:11.243Z,89.50
2017-10-26T06:10:38.722Z,87.90
2017-10-26T06:13:06.971Z,89.80
2017-10-26T06:15:34.450Z,89.70
2017-10-26T06:18:02.710Z,90.30
2017-10-26T06:20:30.190Z,90.30
2017-10-26T06:22:58.438Z,89.50
2017-10-26T06:25:25.927Z,89.50
2017-10-26T06:27:54.167Z,90.00
2017-10-26T06:30:21.661Z,90.00
2017-10-26T06:32:49.905Z,89.20
2017-10-26T06:35:17.388Z,89.10
2017-10-26T06:37:45.643Z,89.80
2017-10-26T06:40:13.117Z,89.80
2017-10-26T06:42:40.591Z,89.00
2017-10-26T06:45:08.842Z,88.80
2017-10-26T06:47:36.327Z,88.60
2017-10-26T06:50:04.578Z,88.60
2017-10-26T06:52:32.058Z,88.60
2017-10-26T06:55:00.303Z,88.90
2017-10-26T06:57:27.788Z,88.70
2017-10-26T06:59:56.038Z,89.00
2017-10-26T07:02:23.543Z,88.90
2017-10-26T07:04:51.028Z,89.10
2017-10-26T07:07:18.517Z,89.20
2017-10-26T07:09:45.994Z,87.50
2017-10-26T07:12:14.241Z,87.80
2017-10-26T07:14:41.732Z,87.70
2017-10-26T07:17:09.990Z,88.00
2017-10-26T07:19:38.983Z,87.80
2017-10-26T07:22:06.463Z,87.70
2017-10-26T07:24:34.718Z,88.20
2017-10-26T07:27:02.216Z,88.10
2017-10-26T07:29:30.470Z,88.00
2017-10-26T07:31:58.797Z,89.30
2017-10-26T07:34:26.283Z,88.40
2017-10-26T07:36:53.763Z,88.30
2017-10-26T07:39:21.247Z,87.60
2017-10-26T07:41:49.485Z,88.10
2017-10-26T07:44:16.967Z,87.90
2017-10-26T07:46:45.201Z,84.50
2017-10-26T07:49:12.691Z,84.60
2017-10-26T07:51:40.172Z,86.70
2017-10-26T07:54:08.426Z,86.00
2017-10-26T07:56:35.908Z,85.80
2017-10-26T07:59:04.145Z,85.40
2017-10-26T08:01:31.623Z,85.40
2017-10-26T08:03:59.110Z,86.20
2017-10-26T08:06:27.363Z,85.10
2017-10-26T08:08:54.852Z,84.90
2017-10-26T08:11:22.335Z,85.40
2017-10-26T08:13:49.816Z,85.90
2017-10-26T08:16:17.321Z,85.50
2017-10-26T08:18:45.556Z,83.80
2017-10-26T08:21:13.048Z,83.70
2017-10-26T08:23:41.302Z,83.30
2017-10-26T08:26:08.781Z,83.10
2017-10-26T08:28:37.030Z,79.80
2017-10-26T08:31:04.524Z,79.50
2017-10-26T08:33:32.780Z,72.00
2017-10-26T08:36:00.263Z,71.80
2017-10-26T08:38:28.516Z,72.60
2017-10-26T08:40:55.998Z,72.60
2017-10-26T08:43:24.256Z,73.50
2017-10-26T08:45:52.520Z,71.00
2017-10-26T08:48:20.009Z,70.50
2017-10-26T08:50:48.254Z,71.40
2017-10-26T08:53:15.737Z,71.30
2017-10-26T08:55:43.994Z,82.70
2017-10-26T08:58:11.512Z,82.40
2017-10-26T09:00:38.998Z,70.20
2017-10-26T09:03:06.480Z,81.10
2017-10-26T09:05:34.729Z,70.40
2017-10-26T09:08:02.214Z,70.10
2017-10-26T09:10:29.707Z,75.60
2017-10-26T09:12:57.205Z,69.40
2017-10-26T09:15:24.699Z,65.70
2017-10-26T09:17:52.945Z,65.30
2017-10-26T09:20:20.430Z,65.10
2017-10-26T09:22:50.335Z,67.30
2017-10-26T09:25:18.600Z,63.00
2017-10-26T09:27:46.077Z,63.00
2017-10-26T09:30:13.558Z,64.00
2017-10-26T09:32:41.833Z,69.10
2017-10-26T09:35:10.079Z,62.90
2017-10-26T09:37:37.572Z,62.80
2017-10-26T09:40:05.823Z,66.40
2017-10-26T09:42:33.320Z,66.20
2017-10-26T09:45:00.810Z,63.10
2017-10-26T09:47:28.294Z,64.00
2017-10-26T09:49:55.788Z,66.40
2017-10-26T09:52:23.287Z,64.50
2017-10-26T09:54:50.781Z,66.30
2017-10-26T09:57:19.072Z,69.00
2017-10-26T09:59:47.331Z,70.00
2017-10-26T10:02:14.854Z,69.80
2017-10-26T10:04:42.347Z,71.50
2017-10-26T10:07:09.836Z,71.00
2017-10-26T10:09:37.332Z,67.60
2017-10-26T10:12:04.833Z,66.20
2017-10-26T10:14:33.097Z,68.80
2017-10-26T10:17:00.682Z,68.70
2017-10-26T10:19:28.933Z,80.40
2017-10-26T10:21:56.431Z,81.00
2017-10-26T10:24:23.989Z,67.50
2017-10-26T10:26:52.251Z,66.70
2017-10-26T10:29:20.510Z,69.90
2017-10-26T10:31:47.995Z,69.60
2017-10-26T10:34:16.239Z,67.60
2017-10-26T10:36:43.732Z,67.40
2017-10-26T10:39:12.018Z,66.20
2017-10-26T10:41:39.505Z,66.30
2017-10-26T10:44:07.000Z,83.50
2017-10-26T10:46:34.483Z,68.20
2017-10-26T10:49:02.739Z,69.20
2017-10-26T10:51:30.222Z,69.10
2017-10-26T10:53:58.481Z,72.40
2017-10-26T10:56:26.728Z,71.90
2017-10-26T10:58:54.219Z,72.10
2017-10-26T11:01:22.475Z,67.10
2017-10-26T11:03:50.748Z,82.20
2017-10-26T11:06:18.286Z,82.10
2017-10-26T11:08:45.790Z,72.90
2017-10-26T11:11:13.269Z,70.80
2017-10-26T11:13:41.520Z,67.30
2017-10-26T11:16:08.995Z,67.10
2017-10-26T11:18:37.242Z,67.80
2017-10-26T11:21:04.738Z,68.00
2017-10-26T11:23:32.990Z,78.30
2017-10-26T11:26:00.479Z,78.30
2017-10-26T11:28:27.979Z,66.40
2017-10-26T11:30:55.478Z,64.70
2017-10-26T11:33:22.974Z,71.10
2017-10-26T11:35:50.475Z,70.50
2017-10-26T11:38:18.063Z,73.10
2017-10-26T11:40:46.327Z,72.80
2017-10-26T11:43:13.800Z,72.60
2017-10-26T11:45:42.056Z,66.00
2017-10-26T11:48:09.555Z,65.90
2017-10-26T11:50:37.039Z,66.50
2017-10-26T11:53:04.526Z,70.00
2017-10-26T11:55:32.006Z,66.30
2017-10-26T11:58:00.252Z,68.30
2017-10-26T12:00:27.745Z,69.00
2017-10-26T12:02:56.011Z,68.30
2017-10-26T12:05:23.498Z,68.10
2017-10-26T12:07:51.746Z,72.70
2017-10-26T12:10:19.234Z,72.90
2017-10-26T12:12:47.491Z,66.60
2017-10-26T12:15:15.751Z,70.20
2017-10-26T12:17:43.252Z,69.30
2017-10-26T12:20:10.746Z,68.10
2017-10-26T12:22:38.226Z,70.30
2017-10-26T12:25:07.231Z,74.90
2017-10-26T12:27:34.711Z,74.80
2017-10-26T12:30:02.952Z,74.70
2017-10-26T12:32:30.437Z,74.70
2017-10-26T12:34:58.690Z,70.90
2017-10-26T12:37:26.170Z,70.80
2017-10-26T12:39:54.419Z,66.70
2017-10-26T12:42:21.905Z,66.60
2017-10-26T12:44:50.169Z,71.90
2017-10-26T12:47:17.652Z,71.70
2017-10-26T12:49:45.932Z,69.20
2017-10-26T12:52:14.195Z,67.90
2017-10-26T12:54:42.441Z,71.70
2017-10-26T12:57:09.931Z,71.00
2017-10-26T12:59:38.189Z,67.50
2017-10-26T13:02:05.685Z,68.10
2017-10-26T13:04:33.943Z,69.60
2017-10-26T13:07:02.208Z,68.60
2017-10-26T13:09:29.694Z,68.60
2017-10-26T13:11:57.197Z,71.40
2017-10-26T13:14:24.706Z,65.40
2017-10-26T13:16:52.985Z,63.60
2017-10-26T13:19:21.242Z,66.80
2017-10-26T13:21:48.736Z,66.80
2017-10-26T13:24:16.243Z,64.70
2017-10-26T13:26:43.744Z,65.40
2017-10-26T13:29:12.004Z,68.00
2017-10-26T13:31:39.490Z,67.90
2017-10-26T13:34:06.979Z,64.90
2017-10-26T13:36:34.474Z,65.40
2017-10-26T13:39:02.068Z,64.10
2017-10-26T13:41:29.649Z,69.00
2017-10-26T13:43:57.174Z,66.80
2017-10-26T13:46:25.453Z,67.10
2017-10-26T13:48:53.700Z,65.70
2017-10-26T13:51:21.192Z,65.70
2017-10-26T13:53:49.503Z,67.30
2017-10-26T13:56:17.008Z,67.30
2017-10-26T13:58:44.500Z,65.30
2017-10-26T14:01:11.989Z,65.50
2017-10-26T14:03:39.484Z,65.70
2017-10-26T14:06:06.974Z,66.10
2017-10-26T14:08:34.465Z,64.00
2017-10-26T14:11:01.960Z,64.10
2017-10-26T14:13:29.485Z,66.40
2017-10-26T14:15:56.967Z,65.50
2017-10-26T14:18:24.460Z,63.70
2017-10-26T14:20:52.719Z,64.40
2017-10-26T14:23:20.206Z,64.20
2017-10-26T14:25:47.699Z,64.10
2017-10-26T14:28:15.210Z,67.90
2017-10-26T14:30:43.466Z,68.30
2017-10-26T14:33:10.953Z,67.50
2017-10-26T14:35:39.212Z,63.70
2017-10-26T14:38:06.725Z,63.80
2017-10-26T14:40:34.219Z,68.90
2017-10-26T14:43:01.730Z,71.10
2017-10-26T14:45:29.229Z,71.90
2017-10-26T14:47:56.714Z,73.20
2017-10-26T14:50:24.978Z,72.10
2017-10-26T14:52:52.475Z,72.00
2017-10-26T14:55:19.978Z,74.00
2017-10-26T14:57:47.464Z,74.80
2017-10-26T15:00:14.966Z,65.20
2017-10-26T15:02:42.462Z,70.30
2017-10-26T15:05:09.942Z,68.90
2017-10-26T15:07:38.204Z,64.40
2017-10-26T15:10:05.689Z,64.30
2017-10-26T15:12:33.934Z,70.60
2017-10-26T15:15:01.422Z,70.60
2017-10-26T15:17:29.677Z,69.60
2017-10-26T15:19:57.167Z,69.40
2017-10-26T15:22:25.423Z,75.00
2017-10-26T15:24:54.430Z,68.60
2017-10-26T15:27:22.684Z,74.60
2017-10-26T15:29:50.963Z,73.30
2017-10-26T15:32:18.455Z,73.20
2017-10-26T15:34:46.714Z,74.10
2017-10-26T15:37:14.971Z,76.80
2017-10-26T15:39:42.465Z,76.60
2017-10-26T15:42:10.769Z,77.30
2017-10-26T15:44:38.265Z,77.20
2017-10-26T15:47:05.746Z,75.70
2017-10-26T15:49:34.004Z,76.10
2017-10-26T15:52:01.497Z,76.00
2017-10-26T15:54:29.742Z,76.20
2017-10-26T15:56:57.226Z,76.20
2017-10-26T15:59:25.470Z,78.60
2017-10-26T16:01:52.953Z,78.40
2017-10-26T16:04:21.277Z,77.30
2017-10-26T16:06:48.763Z,77.30
2017-10-26T16:09:16.256Z,77.00
2017-10-26T16:11:44.510Z,78.30
2017-10-26T16:14:12.758Z,79.90
2017-10-26T16:16:40.250Z,79.90
2017-10-26T16:19:07.770Z,79.30
2017-10-26T16:21:35.255Z,79.90
2017-10-26T16:24:02.747Z,83.20
2017-10-26T16:26:31.003Z,85.30
2017-10-26T16:28:58.483Z,85.70
2017-10-26T16:31:26.741Z,83.60
2017-10-26T16:33:54.236Z,83.50
2017-10-26T16:36:21.714Z,89.30
2017-10-26T16:38:49.207Z,87.90
2017-10-26T16:41:16.703Z,87.60
2017-10-26T16:43:44.955Z,88.90
2017-10-26T16:46:12.447Z,88.40
2017-10-26T16:48:39.949Z,88.60
2017-10-26T16:51:07.474Z,90.80
2017-10-26T16:53:34.961Z,90.40
2017-10-26T16:56:02.460Z,91.80
2017-10-26T16:58:30.719Z,90.40
2017-10-26T17:00:58.209Z,90.10
2017-10-26T17:03:26.462Z,88.10
2017-10-26T17:05:53.954Z,88.20
2017-10-26T17:08:21.450Z,86.10
2017-10-26T17:10:48.931Z,88.50
2017-10-26T17:13:16.419Z,84.60
2017-10-26T17:15:43.935Z,85.90
2017-10-26T17:18:11.424Z,88.20
2017-10-26T17:20:39.678Z,88.00
2017-10-26T17:23:07.169Z,88.20
2017-10-26T17:25:35.420Z,85.60
2017-10-26T17:28:02.901Z,85.50
2017-10-26T17:30:31.154Z,88.00
2017-10-26T17:32:58.645Z,87.50
2017-10-26T17:35:26.890Z,86.80
2017-10-26T17:37:54.369Z,86.80
2017-10-26T17:40:21.860Z,87.70
2017-10-26T17:42:49.341Z,86.90
2017-10-26T17:45:16.822Z,86.90
2017-10-26T17:47:44.307Z,87.30
2017-10-26T17:50:12.555Z,89.00
2017-10-26T17:52:40.058Z,88.80
2017-10-26T17:55:08.314Z,90.30
2017-10-26T17:57:35.804Z,90.30
2017-10-26T18:00:03.295Z,90.10
2017-10-26T18:02:30.796Z,90.10
2017-10-26T18:04:59.073Z,90.20
2017-10-26T18:07:27.317Z,89.80
2017-10-26T18:09:54.801Z,89.50
2017-10-26T18:12:22.276Z,89.30
2017-10-26T18:14:50.530Z,90.10
2017-10-26T18:17:18.042Z,90.00
2017-10-26T18:19:45.526Z,90.60
2017-10-26T18:22:13.025Z,90.20
2017-10-26T18:24:41.293Z,90.20
2017-10-26T18:27:08.777Z,90.10
2017-10-26T18:29:37.059Z,90.30
2017-10-26T18:32:04.546Z,90.30
2017-10-26T18:34:32.021Z,90.40
2017-10-26T18:36:59.520Z,90.20
2017-10-26T18:39:27.774Z,90.80
2017-10-26T18:41:55.265Z,90.80
2017-10-26T18:44:23.519Z,91.00
2017-10-26T18:46:51.015Z,90.90
2017-10-26T18:49:18.498Z,91.10
2017-10-26T18:51:45.979Z,90.80
2017-10-26T18:54:13.457Z,90.80
2017-10-26T18:56:40.947Z,90.70
2017-10-26T18:59:08.429Z,90.70
2017-10-26T19:01:35.915Z,91.00
2017-10-26T19:04:03.402Z,91.10
2017-10-26T19:06:31.660Z,91.10
2017-10-26T19:08:59.136Z,91.10
2017-10-26T19:11:27.386Z,91.60
2017-10-26T19:13:54.894Z,91.40
2017-10-26T19:16:22.387Z,91.50
2017-10-26T19:18:49.882Z,91.90
2017-10-26T19:21:17.383Z,91.80
2017-10-26T19:23:44.868Z,91.60
2017-10-26T19:26:12.363Z,91.30
2017-10-26T19:28:40.629Z,91.70
2017-10-26T19:31:09.627Z,91.90
2017-10-26T19:33:37.113Z,91.90
2017-10-26T19:36:05.360Z,92.20
2017-10-26T19:38:32.857Z,92.20
2017-10-26T19:41:00.338Z,92.00
2017-10-26T19:43:27.816Z,92.40
2017-10-26T19:45:55.302Z,92.60
2017-10-26T19:48:22.819Z,92.50
2017-10-26T19:50:50.309Z,92.70
2017-10-26T19:53:17.790Z,93.00
2017-10-26T19:55:46.033Z,93.00
2017-10-26T19:58:13.530Z,92.90
2017-10-26T20:00:41.791Z,93.40
2017-10-26T20:03:09.291Z,93.40
2017-10-26T20:05:36.776Z,93.30
2017-10-26T20:08:04.269Z,93.30
2017-10-26T20:10:31.750Z,93.50
2017-10-26T20:12:59.999Z,93.80
2017-10-26T20:15:27.533Z,93.80
2017-10-26T20:17:55.025Z,93.70
2017-10-26T20:20:22.511Z,94.00
2017-10-26T20:22:49.996Z,94.00
2017-10-26T20:25:17.497Z,93.80
2017-10-26T20:27:44.990Z,93.90
2017-10-26T20:30:12.475Z,94.20
2017-10-26T20:32:39.963Z,93.70
2017-10-26T20:35:07.459Z,94.30
2017-10-26T20:37:34.951Z,94.30
2017-10-26T20:40:02.433Z,94.70
2017-10-26T20:42:29.909Z,94.60
2017-10-26T20:44:57.390Z,94.60
2017-10-26T20:47:25.634Z,95.00
2017-10-26T20:49:58.761Z,94.90
2017-10-26T20:52:32.751Z,95.10
2017-10-26T20:58:06.645Z,94.70
2017-10-26T21:00:53.025Z,94.80
2017-10-26T21:03:26.119Z,94.80
2017-10-26T21:05:59.396Z,94.80
2017-10-26T21:08:32.680Z,95.20
2017-10-26T21:11:19.629Z,95.10
2017-10-26T21:13:52.919Z,95.00
2017-10-26T21:16:20.436Z,95.20
2017-10-26T21:18:48.691Z,95.60
2017-10-26T21:21:16.179Z,95.40
2017-10-26T21:23:44.438Z,95.10
2017-10-26T21:26:11.930Z,95.10
2017-10-26T21:28:40.188Z,95.10
2017-10-26T21:31:08.438Z,95.40
2017-10-26T21:33:41.600Z,95.30
2017-10-26T21:36:09.086Z,95.40
2017-10-26T21:38:36.574Z,95.50
2017-10-26T21:41:04.826Z,95.90
2017-10-26T21:43:32.615Z,95.90
2017-10-26T21:46:00.889Z,95.50
2017-10-26T21:48:28.444Z,95.40
2017-10-26T21:50:56.069Z,95.60
2017-10-26T21:53:23.821Z,95.80
2017-10-26T21:55:51.484Z,96.10
2017-10-26T21:58:19.148Z,96.30
2017-10-26T22:00:46.696Z,96.20
2017-10-26T22:03:14.192Z,96.10
2017-10-26T22:05:41.794Z,95.90
2017-10-26T22:08:10.313Z,96.10
2017-10-26T22:10:37.991Z,96.00
2017-10-26T22:13:05.677Z,96.00
2017-10-26T22:15:33.301Z,95.60
2017-10-26T22:18:01.067Z,95.40
2017-10-26T22:20:29.686Z,94.90
2017-10-26T22:22:57.161Z,94.90
2017-10-26T22:25:30.654Z,94.90
2017-10-26T22:27:58.503Z,95.10
2017-10-26T22:30:26.040Z,94.40
2017-10-26T22:32:53.755Z,94.70
2017-10-26T22:35:21.331Z,94.90
2017-10-26T22:37:49.822Z,94.90
2017-10-26T22:40:18.228Z,95.00
2017-10-26T22:42:45.763Z,95.00
2017-10-26T22:45:13.307Z,94.90
2017-10-26T22:47:41.558Z,95.10
2017-10-26T22:50:09.286Z,94.90
2017-10-26T22:52:36.918Z,95.30
2017-10-26T22:55:05.157Z,94.90
2017-10-26T22:57:32.852Z,94.90
2017-10-26T23:00:01.283Z,94.50
2017-10-26T23:02:28.894Z,94.40
2017-10-26T23:04:57.152Z,94.70
2017-10-26T23:07:25.406Z,94.80
2017-10-26T23:09:52.891Z,94.80
2017-10-26T23:12:20.378Z,94.40
2017-10-26T23:14:48.625Z,94.10
2017-10-26T23:17:16.115Z,94.10
2017-10-26T23:19:44.371Z,94.20
2017-10-26T23:22:11.860Z,94.20
2017-10-26T23:24:39.350Z,94.40
2017-10-26T23:27:06.851Z,94.10
2017-10-26T23:29:35.112Z,94.50
2017-10-26T23:32:02.602Z,94.20
2017-10-26T23:34:30.846Z,94.40
2017-10-26T23:36:58.341Z,94.30
2017-10-26T23:39:26.597Z,94.70
2017-10-26T23:41:54.087Z,94.70
2017-10-26T23:44:21.584Z,94.60
2017-10-26T23:46:49.070Z,94.60
2017-10-26T23:49:16.556Z,94.90
2017-10-26T23:51:44.811Z,94.70
2017-10-26T23:54:12.294Z,94.70
2017-10-26T23:56:40.555Z,94.90
2017-10-26T23:59:08.803Z,94.80
